Time;durP1;ratioP1;P1;durP2;ratioP2;P2;SDS_P1;SDS_P2;PMS_P1;PMS_P2;Temp;Humidity;BMP_temperature;BMP_pressure;BME280_temperature;BME280_humidity;BME280_pressure;Samples;Min_cycle;Max_cycle;Signal;HPM_P1;HPM_P2
2021/07/08 00:01:55;;;;;;;17.10;8.80;;;16.90;93.40;;;;;;4941800;28;20082;-72
2021/07/08 00:04:21;;;;;;;13.13;7.55;;;16.90;93.40;;;;;;4944354;28;20063;-72
2021/07/08 00:06:47;;;;;;;13.63;7.80;;;16.90;93.40;;;;;;4947042;28;20039;-73
2021/07/08 00:09:13;;;;;;;14.43;8.32;;;16.90;93.30;;;;;;4955371;28;20031;-73
2021/07/08 00:11:39;;;;;;;17.63;8.48;;;16.90;93.30;;;;;;4952551;28;20115;-73
2021/07/08 00:14:06;;;;;;;16.50;8.60;;;16.90;93.40;;;;;;4939173;28;20031;-73
2021/07/08 00:16:32;;;;;;;15.50;8.38;;;16.90;93.50;;;;;;4948669;28;20059;-73
2021/07/08 00:18:59;;;;;;;14.38;8.57;;;16.90;93.50;;;;;;4944670;28;20223;-73
2021/07/08 00:21:25;;;;;;;16.58;8.90;;;16.90;93.50;;;;;;4945113;28;20031;-73
2021/07/08 00:23:51;;;;;;;13.15;8.50;;;16.90;93.60;;;;;;4949801;28;20027;-73
2021/07/08 00:26:17;;;;;;;17.73;8.63;;;17.00;93.40;;;;;;4956717;28;20078;-73
2021/07/08 00:28:43;;;;;;;14.75;7.75;;;17.00;93.30;;;;;;4939843;28;20039;-72
2021/07/08 00:31:09;;;;;;;15.63;8.55;;;17.10;93.10;;;;;;4948258;28;20407;-73
2021/07/08 00:33:36;;;;;;;15.98;8.52;;;17.10;93.00;;;;;;4942737;28;20053;-73
2021/07/08 00:36:01;;;;;;;16.45;8.00;;;17.10;93.00;;;;;;4946192;28;20059;-72
2021/07/08 00:38:27;;;;;;;15.30;7.75;;;17.20;93.30;;;;;;4947281;28;20039;-73
2021/07/08 00:40:53;;;;;;;16.30;8.07;;;17.20;93.00;;;;;;4937920;29;20441;-73
2021/07/08 00:43:18;;;;;;;15.40;7.85;;;17.20;93.10;;;;;;4946580;28;20082;-73
2021/07/08 00:45:44;;;;;;;12.27;7.45;;;17.20;92.90;;;;;;4961991;28;20033;-73
2021/07/08 00:48:10;;;;;;;15.13;8.10;;;17.20;92.80;;;;;;4940430;28;20039;-73
2021/07/08 00:50:48;;;;;;;14.43;7.93;;;17.20;92.80;;;;;;4954126;28;20050;-73
2021/07/08 00:53:19;;;;;;;16.83;8.07;;;17.20;92.70;;;;;;4942219;28;20054;-73
2021/07/08 00:55:56;;;;;;;11.52;7.85;;;17.20;92.80;;;;;;4941449;28;20042;-73
2021/07/08 00:58:22;;;;;;;11.37;6.97;;;17.20;92.80;;;;;;4946271;28;20470;-73
2021/07/08 01:00:47;;;;;;;15.27;8.30;;;17.20;92.90;;;;;;4940605;28;20294;-73
2021/07/08 01:03:14;;;;;;;13.65;8.50;;;17.20;92.90;;;;;;4950376;28;20044;-73
2021/07/08 01:05:43;;;;;;;15.40;8.35;;;17.20;92.90;;;;;;4958082;28;20030;-73
2021/07/08 01:08:13;;;;;;;14.43;8.50;;;17.10;93.10;;;;;;4947933;28;20038;-73
2021/07/08 01:10:43;;;;;;;13.45;7.40;;;17.10;93.10;;;;;;4977469;28;20444;-73
2021/07/08 01:13:09;;;;;;;13.60;7.63;;;17.20;93.10;;;;;;4938259;28;20037;-73
2021/07/08 01:15:35;;;;;;;13.32;7.50;;;17.20;92.90;;;;;;4952719;28;20584;-73
2021/07/08 01:18:01;;;;;;;16.25;8.27;;;17.30;92.70;;;;;;4938894;28;20031;-73
2021/07/08 01:20:29;;;;;;;13.55;7.85;;;17.30;92.60;;;;;;4952700;28;20090;-74
2021/07/08 01:22:58;;;;;;;;;;;17.40;92.50;;;;;;4955737;28;20387;-74
2021/07/08 01:25:29;;;;;;;14.13;7.40;;;17.40;92.40;;;;;;4949727;28;19938;-74
2021/07/08 01:27:56;;;;;;;14.82;7.53;;;17.40;92.30;;;;;;4942481;28;20027;-73
2021/07/08 01:30:22;;;;;;;12.15;7.50;;;17.40;92.20;;;;;;4943503;28;20035;-73
2021/07/08 01:32:49;;;;;;;11.70;7.25;;;17.40;92.20;;;;;;4941575;28;20379;-74
2021/07/08 01:35:14;;;;;;;12.63;6.78;;;17.40;92.20;;;;;;4944863;28;20461;-73
2021/07/08 01:37:40;;;;;;;13.57;7.07;;;17.40;92.30;;;;;;4945414;28;20066;-72
2021/07/08 01:40:11;;;;;;;13.00;6.88;;;17.30;92.40;;;;;;4948546;28;20106;-72
2021/07/08 01:42:38;;;;;;;9.90;6.40;;;17.30;92.40;;;;;;4944890;28;20026;-72
2021/07/08 01:45:05;;;;;;;11.27;6.68;;;17.30;92.50;;;;;;4941776;28;20026;-72
2021/07/08 01:47:31;;;;;;;10.83;6.47;;;17.20;92.50;;;;;;4944196;28;20109;-72
2021/07/08 01:49:56;;;;;;;12.07;6.38;;;17.30;92.60;;;;;;4951912;28;20213;-72
2021/07/08 01:52:22;;;;;;;13.45;6.72;;;17.30;92.50;;;;;;4950690;28;20513;-72
2021/07/08 01:54:48;;;;;;;10.18;6.47;;;17.30;92.40;;;;;;4952307;28;20418;-73
2021/07/08 01:57:13;;;;;;;13.40;6.53;;;17.30;92.50;;;;;;4953823;28;20031;-72
2021/07/08 01:59:39;;;;;;;9.35;6.13;;;17.30;92.70;;;;;;4959426;28;20027;-72
2021/07/08 02:02:05;;;;;;;11.48;5.93;;;17.30;92.30;;;;;;4942240;28;20526;-73
2021/07/08 02:04:31;;;;;;;13.18;6.68;;;17.30;92.20;;;;;;4955569;28;20046;-73
2021/07/08 02:06:57;;;;;;;11.60;6.40;;;17.40;92.20;;;;;;4948854;28;20498;-72
2021/07/08 02:09:22;;;;;;;11.43;6.32;;;17.30;92.10;;;;;;4954656;28;20023;-73
2021/07/08 02:11:48;;;;;;;9.43;6.38;;;17.30;92.20;;;;;;4948256;28;20030;-73
2021/07/08 02:14:14;;;;;;;12.00;6.45;;;17.20;92.30;;;;;;4952329;28;20035;-73
2021/07/08 02:16:39;;;;;;;14.00;6.80;;;17.20;92.40;;;;;;4953423;28;20042;-73
2021/07/08 02:19:06;;;;;;;13.50;7.25;;;17.20;92.50;;;;;;4947912;28;20036;-72
2021/07/08 02:21:32;;;;;;;12.45;6.75;;;17.10;92.50;;;;;;4946940;28;20398;-73
2021/07/08 02:23:58;;;;;;;9.82;6.13;;;17.10;92.50;;;;;;4956123;28;20082;-73
2021/07/08 02:26:24;;;;;;;14.85;7.40;;;17.10;92.50;;;;;;4939887;28;20032;-73
2021/07/08 02:28:50;;;;;;;11.25;6.35;;;17.00;92.50;;;;;;4948610;28;20034;-74
2021/07/08 02:31:16;;;;;;;12.80;6.18;;;17.10;92.50;;;;;;4948623;28;20050;-73
2021/07/08 02:33:42;;;;;;;9.63;6.20;;;17.10;92.40;;;;;;4954592;28;20026;-72
2021/07/08 02:36:08;;;;;;;11.20;6.63;;;17.10;92.30;;;;;;4971185;28;20091;-73
2021/07/08 02:38:34;;;;;;;9.65;6.45;;;17.10;92.30;;;;;;4951192;28;20035;-71
2021/07/08 02:41:01;;;;;;;11.43;6.25;;;17.00;92.40;;;;;;4945093;28;21533;-71
2021/07/08 02:43:27;;;;;;;14.10;7.55;;;17.00;92.40;;;;;;4949544;28;20158;-72
2021/07/08 02:45:52;;;;;;;12.50;7.28;;;17.00;92.20;;;;;;4943604;28;20566;-71
2021/07/08 02:48:20;;;;;;;12.05;7.05;;;17.00;92.50;;;;;;4944263;28;20462;-70
2021/07/08 02:50:48;;;;;;;12.03;7.53;;;16.90;92.50;;;;;;4948218;28;20062;-70
2021/07/08 02:53:14;;;;;;;12.52;7.00;;;16.90;92.70;;;;;;4938640;28;20295;-71
2021/07/08 02:55:40;;;;;;;13.93;6.88;;;16.90;92.80;;;;;;4938520;28;20047;-72
2021/07/08 02:58:06;;;;;;;10.20;6.43;;;16.90;92.90;;;;;;4946515;28;20039;-72
2021/07/08 03:00:32;;;;;;;12.60;7.22;;;16.80;92.90;;;;;;4947434;28;20042;-72
2021/07/08 03:02:59;;;;;;;11.75;6.97;;;16.80;92.90;;;;;;4948310;28;20462;-72
2021/07/08 03:05:25;;;;;;;14.63;7.78;;;16.80;93.00;;;;;;4944589;28;20132;-71
2021/07/08 03:07:51;;;;;;;11.30;6.68;;;16.70;93.20;;;;;;4958758;28;20035;-72
2021/07/08 03:10:20;;;;;;;9.27;6.10;;;16.80;93.10;;;;;;4946780;28;20438;-71
2021/07/08 03:12:46;;;;;;;11.35;6.15;;;16.80;93.00;;;;;;4946444;28;20119;-71
2021/07/08 03:15:13;;;;;;;10.18;6.15;;;16.80;93.00;;;;;;4948253;28;20057;-72
2021/07/08 03:17:39;;;;;;;9.68;5.63;;;16.90;92.90;;;;;;4947253;28;20027;-72
2021/07/08 03:20:10;;;;;;;11.90;6.97;;;16.90;92.70;;;;;;4946369;28;20434;-72
2021/07/08 03:22:37;;;;;;;9.77;6.00;;;17.00;92.60;;;;;;4936099;28;20030;-72
2021/07/08 03:25:04;;;;;;;10.93;6.57;;;17.00;92.50;;;;;;4942780;28;20042;-72
2021/07/08 03:27:30;;;;;;;10.13;6.07;;;17.00;92.40;;;;;;4946311;28;20054;-71
2021/07/08 03:29:55;;;;;;;9.63;6.38;;;17.00;92.50;;;;;;4946999;28;20078;-72
2021/07/08 03:32:21;;;;;;;8.18;5.72;;;16.90;92.60;;;;;;4951691;28;20119;-72
2021/07/08 03:34:47;;;;;;;10.13;6.28;;;16.90;92.60;;;;;;4960366;28;20540;-71
2021/07/08 03:37:12;;;;;;;10.63;6.35;;;16.90;92.50;;;;;;4935247;28;20461;-72
2021/07/08 03:39:38;;;;;;;8.77;5.90;;;17.00;92.50;;;;;;4943513;28;20098;-72
2021/07/08 03:42:04;;;;;;;8.25;5.88;;;17.00;92.40;;;;;;4937328;28;20031;-71
2021/07/08 03:44:30;;;;;;;8.10;5.63;;;17.00;92.30;;;;;;4941886;28;20777;-72
2021/07/08 03:46:55;;;;;;;8.85;5.93;;;17.00;92.30;;;;;;4937532;28;20038;-71
2021/07/08 03:49:21;;;;;;;8.68;5.70;;;17.00;92.30;;;;;;4947656;28;20031;-72
2021/07/08 03:51:46;;;;;;;11.07;6.22;;;17.10;92.20;;;;;;4945605;28;20043;-72
2021/07/08 03:54:12;;;;;;;8.93;6.35;;;17.10;92.10;;;;;;4940958;28;20030;-72
2021/07/08 03:56:38;;;;;;;9.18;5.80;;;17.20;92.10;;;;;;4946014;28;20441;-72
2021/07/08 03:59:03;;;;;;;11.55;6.40;;;17.10;92.10;;;;;;4942582;28;20027;-72
2021/07/08 04:01:29;;;;;;;7.82;5.90;;;17.10;92.00;;;;;;4936528;28;20122;-71
2021/07/08 04:03:55;;;;;;;9.65;6.03;;;17.10;92.20;;;;;;4937992;28;20059;-71
2021/07/08 04:06:21;;;;;;;9.43;5.97;;;17.10;92.10;;;;;;4944967;28;20497;-71
2021/07/08 04:08:46;;;;;;;10.32;6.78;;;17.20;92.10;;;;;;4942009;28;20114;-72
2021/07/08 04:11:12;;;;;;;7.18;6.38;;;17.20;92.10;;;;;;4947804;28;20837;-71
2021/07/08 04:13:38;;;;;;;7.80;5.18;;;17.20;92.00;;;;;;4944765;28;20062;-71
2021/07/08 04:16:04;;;;;;;10.32;5.85;;;17.20;92.10;;;;;;4944789;28;20038;-71
2021/07/08 04:18:30;;;;;;;9.43;5.47;;;17.20;92.00;;;;;;4944409;28;20513;-71
2021/07/08 04:20:56;;;;;;;8.38;5.88;;;17.20;91.90;;;;;;4947192;28;20034;-72
2021/07/08 04:23:22;;;;;;;8.02;5.57;;;17.20;91.90;;;;;;4937155;28;21004;-71
2021/07/08 04:25:48;;;;;;;8.00;5.97;;;17.30;91.90;;;;;;4942614;28;20120;-72
2021/07/08 04:28:14;;;;;;;7.97;5.53;;;17.30;91.90;;;;;;4946630;28;20054;-71
2021/07/08 04:30:42;;;;;;;8.38;5.55;;;17.30;92.00;;;;;;4947018;28;20043;-71
2021/07/08 04:33:09;;;;;;;10.32;6.93;;;17.30;92.00;;;;;;4948524;28;20043;-71
2021/07/08 04:35:41;;;;;;;10.57;6.57;;;17.10;92.40;;;;;;4952582;28;20031;-71
2021/07/08 04:38:08;;;;;;;9.65;5.97;;;17.00;92.70;;;;;;4952923;28;20047;-72
2021/07/08 04:40:36;;;;;;;10.38;7.18;;;17.00;92.80;;;;;;4949485;28;20031;-72
2021/07/08 04:43:02;;;;;;;8.50;6.10;;;17.00;92.80;;;;;;4942811;28;20054;-71
2021/07/08 04:45:29;;;;;;;8.70;5.95;;;17.00;92.70;;;;;;4947918;28;20027;-71
2021/07/08 04:47:56;;;;;;;8.80;5.38;;;17.10;92.60;;;;;;4947461;28;20019;-71
2021/07/08 04:50:24;;;;;;;7.60;5.07;;;17.20;92.40;;;;;;4945483;28;20593;-71
2021/07/08 04:52:50;;;;;;;7.93;5.35;;;17.20;92.40;;;;;;4943500;28;20133;-71
2021/07/08 04:55:17;;;;;;;7.32;5.13;;;17.20;92.40;;;;;;4964866;28;20035;-71
2021/07/08 04:57:45;;;;;;;6.72;4.60;;;17.20;92.30;;;;;;4952209;28;20026;-71
2021/07/08 05:00:13;;;;;;;6.40;4.90;;;17.20;92.10;;;;;;4942804;28;20023;-71
2021/07/08 05:02:39;;;;;;;5.25;3.70;;;17.20;92.10;;;;;;4946385;28;20066;-71
2021/07/08 05:05:07;;;;;;;5.40;3.17;;;17.20;91.90;;;;;;4960676;28;20065;-71
2021/07/08 05:07:33;;;;;;;2.73;2.50;;;17.20;91.60;;;;;;4950498;28;20099;-71
2021/07/08 05:09:59;;;;;;;3.47;2.85;;;17.10;91.40;;;;;;4943382;28;20405;-71
2021/07/08 05:12:24;;;;;;;3.25;2.65;;;17.10;91.40;;;;;;4950558;28;20063;-71
2021/07/08 05:14:50;;;;;;;4.00;2.20;;;17.10;91.30;;;;;;4947897;28;20039;-70
2021/07/08 05:17:18;;;;;;;2.38;2.17;;;17.10;91.20;;;;;;4938214;28;20042;-72
2021/07/08 05:19:44;;;;;;;7.15;2.45;;;17.10;91.40;;;;;;4951102;28;20066;-72
2021/07/08 05:22:10;;;;;;;3.58;2.17;;;17.10;91.30;;;;;;4949505;28;20466;-72
2021/07/08 05:24:37;;;;;;;3.33;2.70;;;17.20;91.40;;;;;;4955686;28;20054;-71
2021/07/08 05:27:03;;;;;;;3.40;2.80;;;17.10;91.00;;;;;;4952485;28;20493;-71
2021/07/08 05:29:30;;;;;;;3.90;2.80;;;17.10;91.30;;;;;;4947196;28;20035;-71
2021/07/08 05:31:56;;;;;;;2.85;2.10;;;17.00;91.60;;;;;;4943078;28;20401;-71
2021/07/08 05:34:21;;;;;;;3.38;2.10;;;17.10;91.10;;;;;;4942753;28;20042;-71
2021/07/08 05:36:47;;;;;;;1.90;1.60;;;17.10;91.10;;;;;;4945926;28;20039;-72
2021/07/08 05:39:13;;;;;;;2.92;1.52;;;17.10;90.70;;;;;;4946599;28;20063;-72
2021/07/08 05:41:39;;;;;;;1.75;1.65;;;17.00;90.70;;;;;;4937697;28;20034;-71
2021/07/08 05:44:06;;;;;;;3.15;1.77;;;17.10;90.90;;;;;;4940836;28;20045;-71
2021/07/08 05:46:31;;;;;;;2.92;1.60;;;17.00;90.70;;;;;;4940060;28;20430;-71
2021/07/08 05:48:57;;;;;;;1.52;1.42;;;17.10;90.80;;;;;;4941276;28;20043;-72
2021/07/08 05:51:23;;;;;;;2.05;1.83;;;17.00;90.80;;;;;;4940233;28;20067;-72
2021/07/08 05:53:48;;;;;;;2.95;1.65;;;17.10;91.10;;;;;;4945033;28;20066;-73
2021/07/08 05:56:14;;;;;;;3.45;1.40;;;17.10;91.00;;;;;;4939104;28;20118;-71
2021/07/08 05:58:40;;;;;;;2.90;1.20;;;17.10;90.90;;;;;;4941667;28;20031;-71
2021/07/08 06:01:06;;;;;;;1.50;1.20;;;17.10;90.70;;;;;;4948175;28;20473;-73
2021/07/08 06:03:31;;;;;;;1.83;1.70;;;17.10;90.80;;;;;;4963025;28;20035;-72
2021/07/08 06:05:57;;;;;;;1.95;1.75;;;17.20;90.80;;;;;;4947325;28;20020;-73
2021/07/08 06:08:23;;;;;;;3.35;1.55;;;17.20;91.00;;;;;;4957182;28;20050;-71
2021/07/08 06:10:49;;;;;;;1.35;1.10;;;17.20;90.80;;;;;;4962442;28;20031;-72
2021/07/08 06:13:14;;;;;;;1.27;1.17;;;17.20;90.70;;;;;;4953637;28;20035;-72
2021/07/08 06:15:40;;;;;;;1.90;1.17;;;17.20;90.50;;;;;;4967705;28;20223;-71
2021/07/08 06:18:06;;;;;;;1.75;1.00;;;17.20;90.80;;;;;;4951740;28;20035;-72
2021/07/08 06:20:32;;;;;;;1.40;1.20;;;17.20;90.80;;;;;;4944623;28;20074;-72
2021/07/08 06:22:58;;;;;;;1.45;1.20;;;17.20;90.60;;;;;;4937849;28;20039;-71
2021/07/08 06:25:28;;;;;;;1.08;1.00;;;17.20;90.90;;;;;;4946535;28;20023;-71
2021/07/08 06:27:54;;;;;;;1.40;1.15;;;17.20;91.10;;;;;;4942118;28;20019;-71
2021/07/08 06:30:20;;;;;;;1.45;1.30;;;17.20;91.20;;;;;;4948840;28;20042;-71
2021/07/08 06:32:46;;;;;;;1.95;1.00;;;17.20;90.90;;;;;;4952018;28;20047;-70
2021/07/08 06:35:16;;;;;;;1.10;1.10;;;17.20;91.40;;;;;;4948443;28;20077;-71
2021/07/08 06:37:42;;;;;;;1.58;1.20;;;17.30;91.40;;;;;;4952306;28;20370;-71
2021/07/08 06:40:08;;;;;;;1.67;1.08;;;17.30;91.10;;;;;;4954995;28;20086;-70
2021/07/08 06:42:34;;;;;;;1.23;1.20;;;17.40;91.70;;;;;;4946475;28;20102;-71
2021/07/08 06:45:00;;;;;;;1.20;1.10;;;17.50;91.50;;;;;;4957761;28;20062;-70
2021/07/08 06:47:31;;;;;;;1.55;1.45;;;17.60;91.20;;;;;;4947131;28;20050;-71
2021/07/08 06:49:57;;;;;;;1.58;1.40;;;17.60;90.70;;;;;;4958569;28;20044;-71
2021/07/08 06:52:23;;;;;;;1.55;1.30;;;17.60;90.30;;;;;;4949538;28;20034;-71
2021/07/08 06:54:48;;;;;;;1.35;1.25;;;17.60;90.20;;;;;;4962160;28;20029;-71
2021/07/08 06:57:14;;;;;;;1.52;1.42;;;17.60;90.80;;;;;;4948623;28;20089;-70
2021/07/08 06:59:40;;;;;;;3.70;1.38;;;17.70;90.40;;;;;;4948466;28;20114;-71
2021/07/08 07:02:06;;;;;;;1.45;1.17;;;17.70;90.40;;;;;;4947112;28;20593;-71
2021/07/08 07:04:31;;;;;;;2.90;1.27;;;17.70;90.50;;;;;;4952736;28;20043;-71
2021/07/08 07:06:57;;;;;;;1.58;1.30;;;17.80;90.80;;;;;;4948342;28;20406;-71
2021/07/08 07:09:23;;;;;;;2.08;1.27;;;17.80;90.80;;;;;;4945056;28;20059;-71
2021/07/08 07:11:48;;;;;;;1.50;1.40;;;17.80;90.50;;;;;;4950669;29;20102;-71
2021/07/08 07:14:14;;;;;;;3.67;1.48;;;17.80;90.40;;;;;;4958385;28;20042;-70
2021/07/08 07:16:40;;;;;;;1.30;1.20;;;17.80;90.40;;;;;;4949983;28;20046;-71
2021/07/08 07:19:05;;;;;;;1.55;1.10;;;17.80;90.50;;;;;;4950199;28;20438;-72
2021/07/08 07:21:35;;;;;;;1.98;1.02;;;17.80;90.70;;;;;;4948750;28;20089;-71
2021/07/08 07:24:02;;;;;;;1.90;1.17;;;17.80;90.70;;;;;;4948442;28;20418;-72
2021/07/08 07:26:28;;;;;;;1.08;0.90;;;17.80;91.20;;;;;;4951652;28;20030;-71
2021/07/08 07:28:53;;;;;;;1.77;1.02;;;17.80;90.20;;;;;;4949718;28;20023;-69
2021/07/08 07:31:19;;;;;;;1.10;1.00;;;17.80;90.50;;;;;;4950426;28;20032;-71
2021/07/08 07:33:48;;;;;;;3.08;1.33;;;17.80;90.80;;;;;;4943560;28;20406;-71
2021/07/08 07:36:17;;;;;;;2.35;1.10;;;17.70;90.50;;;;;;4952336;28;20788;-71
2021/07/08 07:38:44;;;;;;;1.10;1.02;;;17.70;90.70;;;;;;4952569;28;20027;-70
2021/07/08 07:41:13;;;;;;;1.30;1.20;;;17.70;90.70;;;;;;4952819;28;20051;-71
2021/07/08 07:43:39;;;;;;;1.55;1.00;;;17.70;90.70;;;;;;4949326;28;20177;-71
2021/07/08 07:46:08;;;;;;;1.23;1.02;;;17.70;90.70;;;;;;4952434;28;20071;-70
2021/07/08 07:48:34;;;;;;;0.93;0.93;;;17.60;90.80;;;;;;4953247;28;20035;-71
2021/07/08 07:51:00;;;;;;;1.27;1.00;;;17.60;90.80;;;;;;4959939;28;20030;-71
2021/07/08 07:53:27;;;;;;;1.50;0.90;;;17.70;90.90;;;;;;4948407;28;20031;-71
2021/07/08 07:55:53;;;;;;;1.20;1.10;;;17.80;91.00;;;;;;4943541;28;20031;-71
2021/07/08 07:58:19;;;;;;;1.95;0.80;;;17.90;91.10;;;;;;4953392;28;20067;-71
2021/07/08 08:00:46;;;;;;;1.85;1.10;;;17.90;90.90;;;;;;4955405;28;20030;-71
2021/07/08 08:03:12;;;;;;;1.63;1.02;;;18.00;90.70;;;;;;4946107;28;20095;-70
2021/07/08 08:05:41;;;;;;;1.45;1.00;;;17.90;90.40;;;;;;4955260;28;20617;-71
2021/07/08 08:08:30;;;;;;;0.80;0.80;;;17.90;90.50;;;;;;4955104;28;20521;-70
2021/07/08 08:10:58;;;;;;;0.73;0.73;;;18.00;91.30;;;;;;4951773;28;20544;-70
2021/07/08 08:13:24;;;;;;;0.98;0.98;;;18.00;90.70;;;;;;4953665;28;20036;-70
2021/07/08 08:15:51;;;;;;;1.67;0.82;;;18.00;90.70;;;;;;4948153;28;20078;-71
2021/07/08 08:18:18;;;;;;;5.70;2.43;;;18.00;90.60;;;;;;4946924;28;20425;-72
2021/07/08 08:20:44;;;;;;;2.00;1.80;;;18.10;90.70;;;;;;4954288;28;20027;-71
2021/07/08 08:23:10;;;;;;;1.25;1.15;;;18.10;91.10;;;;;;4943070;28;20023;-71
2021/07/08 08:25:36;;;;;;;1.10;1.00;;;18.10;91.20;;;;;;4954331;28;20033;-71
2021/07/08 08:28:02;;;;;;;1.15;1.08;;;18.10;90.80;;;;;;4954309;28;20054;-70
2021/07/08 08:30:28;;;;;;;0.75;0.75;;;18.20;90.90;;;;;;4939935;28;20027;-72
2021/07/08 08:32:54;;;;;;;1.40;1.15;;;18.20;90.50;;;;;;4945633;28;20027;-71
2021/07/08 08:35:19;;;;;;;1.38;0.70;;;18.20;90.50;;;;;;4948401;28;20142;-72
2021/07/08 08:37:45;;;;;;;1.05;1.00;;;18.20;90.60;;;;;;4940204;28;20035;-71
2021/07/08 08:40:22;;;;;;;2.28;0.90;;;18.20;91.10;;;;;;4942074;28;20411;-73
2021/07/08 08:42:48;;;;;;;1.40;1.08;;;18.20;90.40;;;;;;4949995;28;20031;-72
2021/07/08 08:45:17;;;;;;;1.20;1.10;;;18.10;90.70;;;;;;4952598;28;20487;-72
2021/07/08 08:48:04;;;;;;;1.63;1.25;;;18.10;90.70;;;;;;4962311;28;20054;-73
2021/07/08 08:50:49;;;;;;;0.87;0.87;;;18.10;90.20;;;;;;4956950;28;20035;-69
2021/07/08 08:53:17;;;;;;;1.30;1.15;;;18.10;90.10;;;;;;4966860;28;20031;-72
2021/07/08 08:55:44;;;;;;;1.27;1.17;;;18.10;90.20;;;;;;4950407;28;20078;-72
2021/07/08 08:58:15;;;;;;;1.17;0.95;;;18.10;90.50;;;;;;4950904;28;20042;-71
2021/07/08 09:00:45;;;;;;;1.55;0.98;;;18.20;90.60;;;;;;4942297;28;20043;-72
2021/07/08 09:03:14;;;;;;;1.40;1.20;;;18.20;90.70;;;;;;4942205;28;20118;-71
2021/07/08 09:05:42;;;;;;;1.15;1.10;;;18.20;90.90;;;;;;4940944;28;21717;-71
2021/07/08 09:08:09;;;;;;;;;;;18.20;90.70;;;;;;4947474;28;20034;-71
2021/07/08 09:10:35;;;;;;;0.90;0.90;;;18.30;90.60;;;;;;4944127;28;19917;-71
2021/07/08 09:13:01;;;;;;;0.80;0.80;;;18.30;90.50;;;;;;4946896;28;20027;-71
2021/07/08 09:15:27;;;;;;;1.23;1.10;;;18.40;90.90;;;;;;4945993;28;20054;-71
2021/07/08 09:17:52;;;;;;;0.95;0.95;;;18.50;90.60;;;;;;4943979;28;20086;-71
2021/07/08 09:20:20;;;;;;;0.98;0.98;;;18.50;90.60;;;;;;4950493;28;20046;-71
2021/07/08 09:22:47;;;;;;;1.10;1.00;;;18.60;90.80;;;;;;4962511;28;20049;-71
2021/07/08 09:25:19;;;;;;;2.10;1.00;;;18.70;90.20;;;;;;4952730;28;20290;-71
2021/07/08 09:27:46;;;;;;;1.20;0.85;;;18.80;90.00;;;;;;4952377;28;20353;-72
2021/07/08 09:30:34;;;;;;;0.90;0.90;;;18.80;90.30;;;;;;4952587;28;20042;-71
2021/07/08 09:32:59;;;;;;;5.72;1.33;;;19.00;90.00;;;;;;4949039;28;20050;-72
2021/07/08 09:35:33;;;;;;;1.00;1.00;;;19.20;90.90;;;;;;4953174;28;20440;-71
2021/07/08 09:38:13;;;;;;;0.90;0.90;;;19.30;89.70;;;;;;4949860;28;20031;-71
2021/07/08 09:40:40;;;;;;;2.63;1.05;;;19.50;90.10;;;;;;4957614;28;20105;-72
2021/07/08 09:43:06;;;;;;;1.00;1.00;;;19.40;87.90;;;;;;4971156;28;20027;-72
2021/07/08 09:45:47;;;;;;;0.98;0.98;;;19.40;87.40;;;;;;4955090;28;20027;-71
2021/07/08 09:48:22;;;;;;;1.17;1.13;;;19.40;87.10;;;;;;4953939;28;20035;-71
2021/07/08 09:50:48;;;;;;;1.67;1.10;;;19.40;88.00;;;;;;4956957;28;20513;-71
2021/07/08 09:53:22;;;;;;;1.15;1.05;;;19.40;86.90;;;;;;4970192;28;20031;-72
2021/07/08 09:58:29;;;;;;;1.10;1.10;;;19.30;87.60;;;;;;4970216;28;20038;-71
2021/07/08 10:00:55;;;;;;;1.15;1.08;;;19.20;87.20;;;;;;4953646;28;20058;-71
2021/07/08 10:03:21;;;;;;;1.20;1.08;;;19.20;87.40;;;;;;4955694;28;20030;-71
2021/07/08 10:05:46;;;;;;;1.65;1.10;;;19.20;87.60;;;;;;4969353;28;20027;-72
2021/07/08 10:08:13;;;;;;;1.05;0.95;;;19.20;87.60;;;;;;4965706;28;20046;-71
2021/07/08 10:10:41;;;;;;;1.27;1.27;;;19.20;88.00;;;;;;4973142;28;20041;-71
2021/07/08 10:13:08;;;;;;;1.38;1.25;;;19.20;88.80;;;;;;4955820;28;20088;-72
2021/07/08 10:15:39;;;;;;;3.30;1.23;;;19.20;88.00;;;;;;4946862;28;20050;-72
2021/07/08 10:18:07;;;;;;;1.52;1.10;;;19.20;88.10;;;;;;4951909;28;20061;-71
2021/07/08 10:20:35;;;;;;;1.40;1.30;;;19.20;87.60;;;;;;4950911;28;20058;-71
2021/07/08 10:23:01;;;;;;;1.40;1.27;;;19.00;89.30;;;;;;4954773;28;20038;-71
2021/07/08 10:25:27;;;;;;;1.23;1.13;;;19.00;90.00;;;;;;4955263;28;20485;-71
2021/07/08 10:27:54;;;;;;;1.10;1.00;;;18.90;89.20;;;;;;4953289;28;20616;-72
2021/07/08 10:30:21;;;;;;;1.20;1.10;;;18.80;88.20;;;;;;4945967;28;20065;-73
2021/07/08 10:32:57;;;;;;;1.27;1.17;;;18.80;88.80;;;;;;4949143;28;20285;-72
2021/07/08 10:35:43;;;;;;;1.20;1.10;;;18.70;88.50;;;;;;4971965;28;20111;-72
2021/07/08 10:38:29;;;;;;;1.13;0.90;;;18.70;87.90;;;;;;4957346;28;20030;-72
2021/07/08 10:40:56;;;;;;;1.00;1.00;;;18.70;88.30;;;;;;4950868;28;20026;-73
2021/07/08 10:43:43;;;;;;;1.25;1.08;;;18.70;89.10;;;;;;4958251;28;20122;-71
2021/07/08 10:46:10;;;;;;;2.15;1.30;;;18.70;87.50;;;;;;4949600;28;20048;-72
2021/07/08 10:48:41;;;;;;;2.10;1.30;;;18.70;88.40;;;;;;4959980;28;20089;-72
2021/07/08 10:51:16;;;;;;;1.20;1.10;;;18.80;88.50;;;;;;4954511;28;20513;-71
2021/07/08 10:53:44;;;;;;;1.20;1.10;;;18.80;88.70;;;;;;4957138;28;20030;-71
2021/07/08 10:56:13;;;;;;;;;;;18.80;88.60;;;;;;4974641;28;20038;-71
2021/07/08 10:58:55;;;;;;;1.10;1.00;;;18.90;89.10;;;;;;4955414;28;20429;-70
2021/07/08 11:01:21;;;;;;;1.00;1.00;;;18.80;89.60;;;;;;4952584;28;20038;-70
2021/07/08 11:03:48;;;;;;;2.00;1.30;;;18.80;90.00;;;;;;4955149;28;20022;-71
2021/07/08 11:06:32;;;;;;;1.37;1.20;;;18.80;90.00;;;;;;4957505;28;20081;-72
2021/07/08 11:09:04;;;;;;;1.38;1.27;;;18.70;89.20;;;;;;4955618;28;20026;-72
2021/07/08 11:11:30;;;;;;;3.08;1.50;;;18.70;88.90;;;;;;4960217;28;20023;-71
2021/07/08 11:13:58;;;;;;;1.60;1.30;;;18.80;90.10;;;;;;4975637;28;20034;-72
2021/07/08 11:16:44;;;;;;;2.40;1.40;;;18.80;90.00;;;;;;4941768;28;20030;-70
2021/07/08 11:19:13;;;;;;;1.30;1.20;;;18.80;90.10;;;;;;4957573;28;20033;-71
2021/07/08 11:22:02;;;;;;;1.60;1.50;;;18.90;90.10;;;;;;4958720;28;20038;-72
2021/07/08 11:24:48;;;;;;;1.55;1.40;;;18.80;90.20;;;;;;4953592;28;20142;-72
2021/07/08 11:27:32;;;;;;;2.00;1.55;;;18.80;90.30;;;;;;4969500;28;20034;-70
2021/07/08 11:30:11;;;;;;;1.55;1.45;;;18.80;90.50;;;;;;4962173;28;20019;-74
2021/07/08 11:32:42;;;;;;;1.55;1.40;;;18.70;90.50;;;;;;4952533;28;20026;-70
2021/07/08 11:35:23;;;;;;;2.20;1.58;;;18.70;90.50;;;;;;4967041;28;20030;-71
2021/07/08 11:37:54;;;;;;;3.22;1.65;;;18.60;90.60;;;;;;4947811;28;20031;-71
2021/07/08 11:40:24;;;;;;;1.63;1.52;;;18.60;90.80;;;;;;4967890;28;20027;-71
2021/07/08 11:42:52;;;;;;;1.83;1.50;;;18.60;90.80;;;;;;4965228;28;20018;-71
2021/07/08 11:45:23;;;;;;;;;;;18.50;91.10;;;;;;4968342;28;20031;-72
2021/07/08 11:47:54;;;;;;;2.25;1.63;;;18.50;91.40;;;;;;4950321;28;19914;-72
2021/07/08 11:50:28;;;;;;;2.08;1.30;;;18.50;91.60;;;;;;4952167;28;20370;-71
2021/07/08 11:53:18;;;;;;;1.35;1.25;;;18.50;91.80;;;;;;4949119;28;20034;-71
2021/07/08 11:55:58;;;;;;;1.38;1.10;;;18.50;91.90;;;;;;4952304;28;20163;-72
2021/07/08 11:58:36;;;;;;;1.20;1.10;;;18.40;91.60;;;;;;4949896;28;20102;-71
2021/07/08 12:01:12;;;;;;;1.27;1.27;;;18.40;91.30;;;;;;4949704;28;20122;-70
2021/07/08 12:03:49;;;;;;;2.45;1.13;;;18.40;91.10;;;;;;4954165;28;20057;-71
2021/07/08 12:06:18;;;;;;;1.40;1.30;;;18.40;91.10;;;;;;4964651;28;20559;-71
2021/07/08 12:08:53;;;;;;;1.40;1.27;;;18.40;91.10;;;;;;4964239;28;20030;-72
2021/07/08 12:11:30;;;;;;;1.40;1.10;;;18.40;91.20;;;;;;4962189;28;20758;-72
2021/07/08 12:14:16;;;;;;;2.47;1.37;;;18.40;91.10;;;;;;4945259;28;20069;-71
2021/07/08 12:16:49;;;;;;;1.85;1.10;;;18.30;90.90;;;;;;4956132;28;20089;-72
2021/07/08 12:19:15;;;;;;;2.78;1.30;;;18.30;91.00;;;;;;4963036;28;20022;-71
2021/07/08 12:21:45;;;;;;;3.13;1.70;;;18.20;90.80;;;;;;4957293;28;20031;-72
2021/07/08 12:24:24;;;;;;;1.95;1.23;;;18.20;90.90;;;;;;4960266;28;20493;-71
2021/07/08 12:26:53;;;;;;;1.30;1.20;;;18.10;90.90;;;;;;4962137;28;20402;-72
2021/07/08 12:29:30;;;;;;;1.10;1.05;;;18.10;90.90;;;;;;4951924;28;20593;-71
2021/07/08 12:32:02;;;;;;;1.30;1.20;;;18.10;91.30;;;;;;4952343;28;20736;-71
2021/07/08 12:34:44;;;;;;;1.88;1.20;;;18.10;91.10;;;;;;4968467;28;20035;-72
2021/07/08 12:37:13;;;;;;;1.30;0.90;;;18.10;90.80;;;;;;4964284;28;20062;-71
2021/07/08 12:39:40;;;;;;;1.02;0.85;;;18.10;90.90;;;;;;4968554;28;20058;-72
2021/07/08 12:42:13;;;;;;;1.87;1.10;;;18.10;90.80;;;;;;4949520;28;20031;-70
2021/07/08 12:44:40;;;;;;;2.33;0.90;;;18.10;91.50;;;;;;4966465;28;20034;-71
2021/07/08 12:47:06;;;;;;;2.35;1.05;;;18.10;90.80;;;;;;4959898;28;20030;-72
2021/07/08 12:49:32;;;;;;;0.85;0.85;;;18.10;90.60;;;;;;4964529;28;20092;-72
2021/07/08 12:51:58;;;;;;;1.83;1.05;;;18.00;91.00;;;;;;4953917;28;20095;-71
2021/07/08 12:54:29;;;;;;;2.28;1.40;;;17.90;91.00;;;;;;4956085;28;20046;-72